createdAt,value
2018-04-23T00:03:00.129Z,8.6
2018-04-23T00:08:50.994Z,5.36
2018-04-23T00:14:41.909Z,6.45
2018-04-23T00:20:32.788Z,10.48
2018-04-23T00:26:23.677Z,6.61
2018-04-23T00:32:14.510Z,5.47
2018-04-23T00:38:05.421Z,6.71
2018-04-23T00:43:56.309Z,10.41
2018-04-23T00:49:47.189Z,8.39
2018-04-23T00:55:38.069Z,11.65
2018-04-23T01:01:28.963Z,11.05
2018-04-23T01:07:19.865Z,6.95
2018-04-23T01:13:10.726Z,7.92
2018-04-23T01:19:01.626Z,11.1
2018-04-23T01:24:52.505Z,9.78
2018-04-23T01:30:43.418Z,7.65
2018-04-23T01:36:34.339Z,6.34
2018-04-23T01:42:25.231Z,8.04
2018-04-23T01:48:16.076Z,5.45
2018-04-23T01:54:06.984Z,6.78
2018-04-23T01:59:57.857Z,8.79
2018-04-23T02:05:48.730Z,6.29
2018-04-23T02:11:39.611Z,9.8
2018-04-23T02:17:30.511Z,7.36
2018-04-23T02:23:21.347Z,7.31
2018-04-23T02:29:12.242Z,12.9
2018-04-23T02:35:03.143Z,7.11
2018-04-23T02:40:54.051Z,8.57
2018-04-23T02:46:44.896Z,12.94
2018-04-23T02:52:35.778Z,8.43
2018-04-23T02:58:26.651Z,10.21
2018-04-23T03:04:17.531Z,9.89
2018-04-23T03:10:08.425Z,8.7
2018-04-23T03:15:59.306Z,7.24
2018-04-23T03:21:50.184Z,7.39
2018-04-23T03:27:41.048Z,9.18
2018-04-23T03:33:31.980Z,7.94
2018-04-23T03:39:22.882Z,10.74
2018-04-23T03:45:13.734Z,7.87
2018-04-23T03:51:04.576Z,9.48
2018-04-23T03:56:55.460Z,10.45
2018-04-23T04:02:46.331Z,8.79
2018-04-23T04:08:37.238Z,9.57
2018-04-23T04:14:28.104Z,12.89
2018-04-23T04:20:19.013Z,9.79
2018-04-23T04:26:09.885Z,8.5
2018-04-23T04:32:00.724Z,12.64
2018-04-23T04:37:51.605Z,10.6
2018-04-23T04:43:42.503Z,8.2
2018-04-23T04:49:33.365Z,9.96
2018-04-23T04:55:24.261Z,11.45
2018-04-23T05:01:15.148Z,11.6
2018-04-23T05:07:06.033Z,9.14
2018-04-23T05:12:56.898Z,8.64
2018-04-23T05:18:47.785Z,8.7
2018-04-23T05:24:38.706Z,10.96
2018-04-23T05:30:29.544Z,10.6
2018-04-23T05:36:20.391Z,10.81
2018-04-23T05:42:11.311Z,10.03
2018-04-23T05:48:02.222Z,11.25
2018-04-23T05:53:53.056Z,11.06
2018-04-23T05:59:43.938Z,11.01
2018-04-23T06:05:34.822Z,11.56
2018-04-23T06:11:25.709Z,12.68
2018-04-23T06:17:16.582Z,15.9
2018-04-23T06:23:07.469Z,23.78
2018-04-23T06:28:58.311Z,20.57
2018-04-23T06:34:49.195Z,19.2
2018-04-23T06:40:40.042Z,23.8
2018-04-23T06:46:30.957Z,24.04
2018-04-23T06:52:21.922Z,26.87
2018-04-23T06:58:12.830Z,27.08
2018-04-23T07:04:03.624Z,22.75
2018-04-23T07:09:54.588Z,21.22
2018-04-23T07:15:45.401Z,24.54
2018-04-23T07:21:36.285Z,18.09
2018-04-23T07:27:27.144Z,27.17
2018-04-23T07:33:18.048Z,25.62
2018-04-23T07:39:08.928Z,28.26
2018-04-23T07:44:59.781Z,24.05
2018-04-23T07:50:50.743Z,18.8
2018-04-23T07:56:41.558Z,19.02
2018-04-23T08:02:32.524Z,22.9
2018-04-23T08:08:23.447Z,22.01
2018-04-23T08:14:14.336Z,18.76
2018-04-23T08:20:05.125Z,19.16
2018-04-23T08:25:56.027Z,13.93
2018-04-23T08:31:46.910Z,15.55
2018-04-23T08:37:37.796Z,14.52
2018-04-23T08:43:28.599Z,15.09
2018-04-23T08:49:19.510Z,13.98
2018-04-23T08:55:10.407Z,17.67
2018-04-23T09:01:01.265Z,20.68
2018-04-23T09:06:52.135Z,63.85
2018-04-23T09:12:43.053Z,72.17
2018-04-23T09:18:33.917Z,70.55
2018-04-23T09:24:24.772Z,51.74
2018-04-23T09:30:15.685Z,37.92
2018-04-23T09:36:06.584Z,33.72
2018-04-23T09:41:57.462Z,32.26
2018-04-23T09:47:48.349Z,26.8
2018-04-23T09:53:39.219Z,22.49
2018-04-23T09:59:30.110Z,27.45
2018-04-23T10:05:21.005Z,22.4
2018-04-23T10:11:11.957Z,16.8
2018-04-23T10:17:02.838Z,15.47
2018-04-23T10:22:53.711Z,18.9
2018-04-23T10:28:44.578Z,31.57
2018-04-23T10:34:35.488Z,27.79
2018-04-23T10:40:26.380Z,23.76
2018-04-23T10:46:17.294Z,28.54
2018-04-23T10:52:08.235Z,32.16
2018-04-23T10:57:59.099Z,28.25
2018-04-23T11:03:50.019Z,19.2
2018-04-23T11:09:40.926Z,20.41
2018-04-23T11:15:31.830Z,21.91
2018-04-23T11:21:22.744Z,25.04
2018-04-23T11:27:13.668Z,22.42
2018-04-23T11:33:04.627Z,17.05
2018-04-23T11:38:55.474Z,17.55
2018-04-23T11:44:46.426Z,25.6
2018-04-23T11:50:37.279Z,21.8
2018-04-23T11:56:28.219Z,16.02
2018-04-23T12:02:19.168Z,20.48
2018-04-23T12:08:10.032Z,22.38
2018-04-23T12:14:00.965Z,26.87
2018-04-23T12:19:51.984Z,21.67
2018-04-23T12:25:42.860Z,23.24
2018-04-23T12:31:33.734Z,20.51
2018-04-23T12:37:24.673Z,23
2018-04-23T12:43:15.605Z,18.9
2018-04-23T12:49:06.557Z,16.65
2018-04-23T12:54:57.563Z,17.15
2018-04-23T13:00:48.481Z,13.99
2018-04-23T13:06:39.386Z,15.88
2018-04-23T13:12:30.318Z,20.53
2018-04-23T13:18:21.287Z,15.51
2018-04-23T13:24:12.160Z,17.69
2018-04-23T13:30:03.153Z,21
2018-04-23T13:35:54.035Z,27.46
2018-04-23T13:41:44.979Z,22.14
2018-04-23T13:47:35.907Z,25.1
2018-04-23T13:53:26.855Z,19.82
2018-04-23T13:59:17.795Z,22.44
2018-04-23T14:05:08.769Z,21.77
2018-04-23T14:10:59.657Z,16.77
2018-04-23T14:16:50.592Z,18.54
2018-04-23T14:22:41.516Z,14.09
2018-04-23T14:28:32.481Z,11.79
2018-04-23T14:34:23.390Z,10.92
2018-04-23T14:40:14.385Z,7.78
2018-04-23T14:46:05.337Z,10.43
2018-04-23T14:51:56.224Z,9.72
2018-04-23T14:57:47.146Z,11.12
2018-04-23T15:03:38.078Z,10.54
2018-04-23T15:09:29.025Z,10.24
2018-04-23T15:15:19.952Z,11.57
2018-04-23T15:21:10.867Z,12.43
2018-04-23T15:27:01.784Z,9.81
2018-04-23T15:38:43.645Z,12.36
2018-04-23T15:44:34.594Z,9.69
2018-04-23T15:50:25.524Z,13.5
2018-04-23T15:56:16.452Z,15.56
2018-04-23T16:02:07.353Z,8.01
2018-04-23T16:07:58.267Z,10.29
2018-04-23T16:13:49.220Z,11.38
2018-04-23T16:19:40.165Z,15.06
2018-04-23T16:25:31.087Z,15.18
2018-04-23T16:31:21.981Z,8.82
2018-04-23T16:37:12.960Z,11.8
2018-04-23T16:43:03.848Z,10.8
2018-04-23T16:48:54.780Z,16.27
2018-04-23T16:54:45.851Z,13.68
2018-04-23T17:00:36.652Z,10.13
2018-04-23T17:06:27.514Z,10.25
2018-04-23T17:12:18.465Z,10.82
2018-04-23T17:18:09.375Z,12.88
2018-04-23T17:24:00.280Z,10.47
2018-04-23T17:29:51.194Z,8.98
2018-04-23T17:35:42.091Z,13.05
2018-04-23T17:41:33.005Z,11.37
2018-04-23T17:47:23.913Z,12.19
2018-04-23T17:53:14.828Z,12.09
2018-04-23T17:59:05.742Z,10.59
2018-04-23T18:04:56.702Z,13.65
2018-04-23T18:10:47.553Z,16.37
2018-04-23T18:16:38.483Z,9.91
2018-04-23T18:22:29.392Z,14.82
2018-04-23T18:28:20.269Z,16.96
2018-04-23T18:34:11.192Z,10.66
2018-04-23T18:40:02.101Z,16.7
2018-04-23T18:45:52.999Z,15.32
2018-04-23T18:51:43.998Z,14.19
2018-04-23T18:57:34.844Z,16.73
2018-04-23T19:03:25.703Z,9.54
2018-04-23T19:09:16.632Z,10.38
2018-04-23T19:15:07.510Z,11.85
2018-04-23T19:21:16.945Z,11.27
2018-04-23T19:27:07.785Z,20
2018-04-23T19:32:58.736Z,16.18
2018-04-23T19:38:49.645Z,12.11
2018-04-23T19:44:40.518Z,16.38
2018-04-23T19:50:31.436Z,11.99
2018-04-23T19:56:22.339Z,11.59
2018-04-23T20:02:13.244Z,11.75
2018-04-23T20:08:04.155Z,12.2
2018-04-23T20:13:55.037Z,15.12
2018-04-23T20:19:45.904Z,10.68
2018-04-23T20:25:36.791Z,12.57
2018-04-23T20:31:27.711Z,11.31
2018-04-23T20:37:18.610Z,12.69
2018-04-23T20:43:09.503Z,12.84
2018-04-23T20:49:00.436Z,14.66
2018-04-23T20:54:51.295Z,11.2
2018-04-23T21:00:42.199Z,15.14
2018-04-23T21:06:33.145Z,16.57
2018-04-23T21:12:23.993Z,12.04
2018-04-23T21:18:14.887Z,16.16
2018-04-23T21:24:05.883Z,11.95
2018-04-23T21:29:56.676Z,11.21
2018-04-23T21:35:47.587Z,10.08
2018-04-23T21:41:38.498Z,8.93
2018-04-23T21:47:29.356Z,9.48
2018-04-23T21:53:20.258Z,11.7
2018-04-23T21:59:11.143Z,14.68
2018-04-23T22:05:02.066Z,8.98
2018-04-23T22:10:52.936Z,12.21
2018-04-23T22:16:43.831Z,10.6
2018-04-23T22:22:34.729Z,9.87
2018-04-23T22:28:25.635Z,10.31
2018-04-23T22:34:16.501Z,13.17
2018-04-23T22:40:07.384Z,8.52
2018-04-23T22:45:58.275Z,7.33
2018-04-23T22:51:49.143Z,11.76
2018-04-23T22:57:40.031Z,12.88
2018-04-23T23:03:30.933Z,10.5
2018-04-23T23:09:21.839Z,10.27
2018-04-23T23:15:12.724Z,13.31
2018-04-23T23:21:03.602Z,14.55
2018-04-23T23:26:54.472Z,15.37
2018-04-23T23:32:45.368Z,8.42
2018-04-23T23:38:36.296Z,9.54
2018-04-23T23:44:27.113Z,9.1
2018-04-23T23:50:18.013Z,12.89
2018-04-23T23:56:08.912Z,13.5
